createdAt,value
2017-01-14T00:03:12.320Z,67.85
2017-01-14T00:08:12.283Z,68.05
2017-01-14T00:13:12.249Z,67.76
2017-01-14T00:18:11.821Z,67.82
2017-01-14T00:23:12.175Z,68.05
2017-01-14T00:28:12.148Z,68.21
2017-01-14T00:33:12.106Z,68.3
2017-01-14T00:38:12.073Z,68.4
2017-01-14T00:43:12.030Z,68.49
2017-01-14T00:48:11.998Z,68.4
2017-01-14T00:53:11.968Z,68.87
2017-01-14T00:58:11.928Z,68.49
2017-01-14T01:03:11.899Z,68.78
2017-01-14T01:08:11.861Z,68.4
2017-01-14T01:13:11.437Z,68.49
2017-01-14T01:18:11.795Z,68.87
2017-01-14T01:23:11.371Z,68.68
2017-01-14T01:28:11.725Z,68.97
2017-01-14T01:33:11.686Z,69.07
2017-01-14T01:38:11.656Z,68.59
2017-01-14T01:43:11.620Z,68.84
2017-01-14T01:48:11.198Z,69.03
2017-01-14T01:53:11.546Z,68.55
2017-01-14T01:58:11.516Z,69.23
2017-01-14T02:03:11.480Z,68.94
2017-01-14T02:08:11.450Z,69.13
2017-01-14T02:13:11.414Z,69.32
2017-01-14T02:18:11.381Z,69.03
2017-01-14T02:23:11.342Z,69.32
2017-01-14T02:28:10.925Z,69.32
2017-01-14T02:33:10.883Z,69.42
2017-01-14T02:38:11.242Z,69.42
2017-01-14T02:43:10.815Z,69.03
2017-01-14T02:48:10.775Z,69.23
2017-01-14T02:53:11.393Z,69.03
2017-01-14T02:58:11.096Z,69.23
2017-01-14T03:03:10.684Z,69.42
2017-01-14T03:08:10.637Z,69.48
2017-01-14T03:13:10.993Z,69.42
2017-01-14T03:18:10.951Z,69.19
2017-01-14T03:23:10.917Z,69.09
2017-01-14T03:28:10.881Z,69.29
2017-01-14T03:33:10.849Z,69.19
2017-01-14T03:38:10.423Z,69.19
2017-01-14T03:43:10.773Z,69.09
2017-01-14T03:48:10.743Z,69
2017-01-14T03:53:10.701Z,69.48
2017-01-14T03:58:10.665Z,69.19
2017-01-14T04:03:10.239Z,69.29
2017-01-14T04:08:10.606Z,69.09
2017-01-14T04:13:10.172Z,69.38
2017-01-14T04:18:10.137Z,69.19
2017-01-14T04:23:10.485Z,69.29
2017-01-14T04:28:10.445Z,69.29
2017-01-14T04:33:10.411Z,69.38
2017-01-14T04:38:09.990Z,69.57
2017-01-14T04:43:10.331Z,69.57
2017-01-14T04:48:09.907Z,69.19
2017-01-14T04:53:09.871Z,69.44
2017-01-14T04:58:10.221Z,69.86
2017-01-14T05:03:09.792Z,69.73
2017-01-14T05:08:10.141Z,69.44
2017-01-14T05:13:09.721Z,69.73
2017-01-14T05:18:10.072Z,69.64
2017-01-14T05:23:10.027Z,69.82
2017-01-14T05:28:09.993Z,69.92
2017-01-14T05:33:09.953Z,69.73
2017-01-14T05:38:09.913Z,70.01
2017-01-14T05:43:09.875Z,70.3
2017-01-14T05:48:09.837Z,70.4
2017-01-14T05:53:09.795Z,70.01
2017-01-14T05:58:09.757Z,70.01
2017-01-14T06:03:09.715Z,70.01
2017-01-14T06:08:09.678Z,70.21
2017-01-14T06:13:09.250Z,70.21
2017-01-14T06:18:09.604Z,70.11
2017-01-14T06:23:09.558Z,70.11
2017-01-14T06:28:09.132Z,69.44
2017-01-14T06:33:09.475Z,69.15
2017-01-14T06:38:09.441Z,68.13
2017-01-14T06:43:09.401Z,66.74
2017-01-14T06:48:09.367Z,66.29
2017-01-14T06:53:09.338Z,65.39
2017-01-14T06:58:09.307Z,64.66
2017-01-14T07:03:08.889Z,64.4
2017-01-14T07:08:09.263Z,64.43
2017-01-14T07:13:08.841Z,63.67
2017-01-14T07:18:09.209Z,63.57
2017-01-14T07:23:08.799Z,63.67
2017-01-14T07:28:09.161Z,63.86
2017-01-14T07:33:09.137Z,63.86
2017-01-14T07:38:09.116Z,63.73
2017-01-14T07:43:08.705Z,63.35
2017-01-14T07:48:08.684Z,63.83
2017-01-14T07:53:09.050Z,63.92
2017-01-14T07:58:08.638Z,64.12
2017-01-14T08:03:08.616Z,64.69
2017-01-14T08:08:08.982Z,65.14
2017-01-14T08:13:08.564Z,65.43
2017-01-14T08:18:08.532Z,66
2017-01-14T08:23:08.892Z,65.91
2017-01-14T08:28:08.862Z,65.72
2017-01-14T08:33:08.842Z,66
2017-01-14T08:38:08.803Z,66.1
2017-01-14T08:43:08.774Z,65.81
2017-01-14T08:48:08.750Z,65.52
2017-01-14T08:53:08.710Z,65.56
2017-01-14T08:58:08.299Z,65.17
2017-01-14T09:03:08.656Z,65.56
2017-01-14T09:08:08.630Z,65.46
2017-01-14T09:13:08.210Z,65.46
2017-01-14T09:18:08.574Z,65.36
2017-01-14T09:23:08.541Z,65.56
2017-01-14T09:28:08.520Z,66.03
2017-01-14T09:33:08.096Z,65.46
2017-01-14T09:38:08.458Z,65.36
2017-01-14T09:43:08.430Z,65.17
2017-01-14T09:48:08.015Z,64.72
2017-01-14T09:53:08.378Z,65.2
2017-01-14T09:58:08.356Z,65.11
2017-01-14T10:03:07.938Z,64.92
2017-01-14T10:08:08.302Z,64.25
2017-01-14T10:13:08.274Z,63.57
2017-01-14T10:18:08.251Z,63.32
2017-01-14T10:23:08.244Z,63.89
2017-01-14T10:28:08.229Z,63.02
2017-01-14T10:33:08.168Z,63.73
2017-01-14T10:38:08.157Z,65.14
2017-01-14T10:43:08.137Z,65.36
2017-01-14T10:48:08.091Z,65.84
2017-01-14T10:53:07.693Z,65.75
2017-01-14T10:58:08.058Z,65.65
2017-01-14T11:03:08.021Z,63.83
2017-01-14T11:08:07.985Z,62.74
2017-01-14T11:13:07.998Z,61.52
2017-01-14T11:18:07.937Z,62.61
2017-01-14T11:23:07.914Z,61.52
2017-01-14T11:28:07.558Z,62.93
2017-01-14T11:33:07.481Z,63.35
2017-01-14T11:38:07.456Z,65.05
2017-01-14T11:43:07.822Z,65.2
2017-01-14T11:48:07.406Z,65.4
2017-01-14T11:53:07.769Z,65.17
2017-01-14T11:58:07.365Z,62.52
2017-01-14T12:03:07.330Z,62.58
2017-01-14T12:08:07.695Z,63.06
2017-01-14T12:13:07.673Z,64.76
2017-01-14T12:18:07.643Z,65.49
2017-01-14T12:23:07.618Z,65.97
2017-01-14T12:28:07.214Z,66.23
2017-01-14T12:33:07.172Z,66.23
2017-01-14T12:38:07.548Z,66.33
2017-01-14T12:43:07.505Z,66.52
2017-01-14T12:48:07.485Z,65.94
2017-01-14T12:53:07.458Z,65.46
2017-01-14T12:58:07.434Z,64.72
2017-01-14T13:03:07.010Z,63.86
2017-01-14T13:08:07.381Z,63.92
2017-01-14T13:13:07.399Z,64.18
2017-01-14T13:18:06.941Z,60.82
2017-01-14T13:23:07.303Z,61.87
2017-01-14T13:28:07.314Z,61.36
2017-01-14T13:33:07.256Z,62.16
2017-01-14T13:38:07.266Z,63.09
2017-01-14T13:43:07.217Z,63.48
2017-01-14T13:48:06.809Z,63.83
2017-01-14T13:53:07.173Z,63.22
2017-01-14T13:58:07.148Z,63.54
2017-01-14T14:03:06.750Z,63.45
2017-01-14T14:08:07.098Z,63.64
2017-01-14T14:13:07.078Z,63.41
2017-01-14T14:18:06.668Z,63.83
2017-01-14T14:23:08.016Z,62.96
2017-01-14T14:28:06.616Z,63.64
2017-01-14T14:33:06.982Z,64.56
2017-01-14T14:38:06.954Z,64.37
2017-01-14T14:43:06.547Z,64.95
2017-01-14T14:48:06.917Z,65.05
2017-01-14T14:53:06.494Z,65.3
2017-01-14T14:58:06.858Z,65.4
2017-01-14T15:03:06.444Z,65.88
2017-01-14T15:08:06.812Z,66.52
2017-01-14T15:13:06.790Z,66.52
2017-01-14T15:18:06.750Z,66.52
2017-01-14T15:23:06.720Z,66.42
2017-01-14T15:28:06.694Z,66.52
2017-01-14T15:33:06.664Z,66.9
2017-01-14T15:38:06.639Z,66.61
2017-01-14T15:43:06.610Z,66.9
2017-01-14T15:48:06.583Z,66.52
2017-01-14T15:53:06.555Z,66.77
2017-01-14T15:58:06.136Z,66.58
2017-01-14T16:03:06.113Z,66.39
2017-01-14T16:08:06.463Z,67
2017-01-14T16:13:06.442Z,66.77
2017-01-14T16:18:06.407Z,66.77
2017-01-14T16:23:06.379Z,66.8
2017-01-14T16:28:06.350Z,66.58
2017-01-14T16:33:06.323Z,66.67
2017-01-14T16:38:06.291Z,66.49
2017-01-14T16:43:06.267Z,66.13
2017-01-14T16:48:06.241Z,65.2
2017-01-14T16:53:06.229Z,64.47
2017-01-14T16:58:06.204Z,63.45
2017-01-14T17:03:06.183Z,62.71
2017-01-14T17:08:06.171Z,62.35
2017-01-14T17:13:06.157Z,62.26
2017-01-14T17:18:06.141Z,61.77
2017-01-14T17:23:06.127Z,62.38
2017-01-14T17:28:06.111Z,62.16
2017-01-14T17:33:06.101Z,63.02
2017-01-14T17:38:06.092Z,63.12
2017-01-14T17:43:06.076Z,63.09
2017-01-14T17:48:05.663Z,63.86
2017-01-14T17:53:06.034Z,63.86
2017-01-14T17:58:06.019Z,64.02
2017-01-14T18:03:06.015Z,64.12
2017-01-14T18:08:06.214Z,64.5
2017-01-14T18:13:05.963Z,64.4
2017-01-14T18:18:05.948Z,64.12
2017-01-14T18:23:05.928Z,64.22
2017-01-14T18:28:05.921Z,64.31
2017-01-14T18:33:05.508Z,64.4
2017-01-14T18:38:05.487Z,64.5
2017-01-14T18:43:05.853Z,64.79
2017-01-14T18:48:05.842Z,64.4
2017-01-14T18:53:05.824Z,64.4
2017-01-14T18:58:05.795Z,64.89
2017-01-14T19:03:05.780Z,64.5
2017-01-14T19:08:05.773Z,64.5
2017-01-14T19:13:05.747Z,64.4
2017-01-14T19:18:05.720Z,64.69
2017-01-14T19:23:05.710Z,64.6
2017-01-14T19:28:05.741Z,64.89
2017-01-14T19:33:05.664Z,65.46
2017-01-14T19:38:05.640Z,65.46
2017-01-14T19:43:05.680Z,65.23
2017-01-14T19:48:05.607Z,65.14
2017-01-14T19:53:05.241Z,65.05
2017-01-14T19:58:05.567Z,65.23
2017-01-14T20:03:05.244Z,65.43
2017-01-14T20:08:05.539Z,65.81
2017-01-14T20:13:05.645Z,65.72
2017-01-14T20:18:05.538Z,65.53
2017-01-14T20:23:05.186Z,66.1
2017-01-14T20:28:05.630Z,66.49
2017-01-14T20:33:05.157Z,66.58
2017-01-14T20:38:05.019Z,66.39
2017-01-14T20:43:05.189Z,66.36
2017-01-14T20:48:05.613Z,65.53
2017-01-14T20:53:05.547Z,64.79
2017-01-14T20:58:05.386Z,63.92
2017-01-14T21:03:05.020Z,63.28
2017-01-14T21:08:05.303Z,62.93
2017-01-14T21:13:05.331Z,62.74
2017-01-14T21:18:05.361Z,63.02
2017-01-14T21:23:05.277Z,62.93
2017-01-14T21:28:05.272Z,63.02
2017-01-14T21:33:05.245Z,62.74
2017-01-14T21:38:05.243Z,63.12
2017-01-14T21:43:05.219Z,63.28
2017-01-14T21:48:05.201Z,63.48
2017-01-14T21:53:05.187Z,63.38
2017-01-14T21:58:04.777Z,63.86
2017-01-14T22:03:04.768Z,63.86
2017-01-14T22:08:05.138Z,63.95
2017-01-14T22:13:04.746Z,64.05
2017-01-14T22:18:05.109Z,63.95
2017-01-14T22:23:05.092Z,63.86
2017-01-14T22:28:04.691Z,63.86
2017-01-14T22:33:05.063Z,64.02
2017-01-14T22:38:05.051Z,64.31
2017-01-14T22:43:05.029Z,64.5
2017-01-14T22:48:05.018Z,64.89
2017-01-14T22:53:05.005Z,64.85
2017-01-14T22:58:04.982Z,65.81
2017-01-14T23:03:04.967Z,65.97
2017-01-14T23:08:04.949Z,66.16
2017-01-14T23:13:04.536Z,66.8
2017-01-14T23:18:04.514Z,66.8
2017-01-14T23:23:04.878Z,67.47
2017-01-14T23:28:04.851Z,67.92
2017-01-14T23:33:04.829Z,67.54
2017-01-14T23:38:04.798Z,68.3
2017-01-14T23:43:04.775Z,67.92
2017-01-14T23:48:04.780Z,67.89
2017-01-14T23:53:04.725Z,68.46
2017-01-14T23:58:04.695Z,68.75
